Time;durP1;ratioP1;P1;durP2;ratioP2;P2;SDS_P1;SDS_P2;PMS_P1;PMS_P2;Temp;Humidity;BMP_temperature;BMP_pressure;BME280_temperature;BME280_humidity;BME280_pressure;Samples;Min_cycle;Max_cycle;Signal;HPM_P1;HPM_P2
2021/08/12 00:01:09;;;;;;;5.38;4.88;;;18.40;99.90;;;;;;5027470;28;20116;-43
2021/08/12 00:03:35;;;;;;;7.30;5.10;;;18.30;99.90;;;;;;5028627;28;20029;-41
2021/08/12 00:06:00;;;;;;;6.03;4.60;;;18.30;99.90;;;;;;5027984;28;20061;-40
2021/08/12 00:08:26;;;;;;;5.75;5.07;;;18.30;99.90;;;;;;5028190;28;20381;-39
2021/08/12 00:10:52;;;;;;;5.70;4.95;;;18.20;99.90;;;;;;5028176;28;20041;-39
2021/08/12 00:13:22;;;;;;;5.95;5.20;;;18.20;99.90;;;;;;5027968;28;20461;-41
2021/08/12 00:15:48;;;;;;;7.40;5.22;;;18.10;99.90;;;;;;5027382;28;20024;-42
2021/08/12 00:18:14;;;;;;;5.65;5.00;;;18.20;99.90;;;;;;5028381;28;20033;-43
2021/08/12 00:20:39;;;;;;;8.32;5.53;;;18.10;99.90;;;;;;5027682;28;20052;-42
2021/08/12 00:23:06;;;;;;;6.97;5.40;;;18.10;99.90;;;;;;5028420;28;20024;-43
2021/08/12 00:25:32;;;;;;;8.63;5.70;;;18.10;99.90;;;;;;5028105;28;20091;-40
2021/08/12 00:28:00;;;;;;;6.20;5.22;;;18.10;99.90;;;;;;5026888;28;20457;-41
2021/08/12 00:30:25;;;;;;;6.22;5.15;;;18.10;99.90;;;;;;5028350;28;20033;-39
2021/08/12 00:32:51;;;;;;;7.68;5.68;;;18.10;99.90;;;;;;5027544;28;20088;-41
2021/08/12 00:35:16;;;;;;;5.78;5.18;;;18.00;99.90;;;;;;5027854;28;20018;-39
2021/08/12 00:37:42;;;;;;;6.28;5.65;;;18.10;99.90;;;;;;5027486;28;20021;-42
2021/08/12 00:40:08;;;;;;;7.80;5.85;;;18.00;99.90;;;;;;5028347;28;20424;-41
2021/08/12 00:42:34;;;;;;;7.82;5.75;;;18.00;99.90;;;;;;5031443;28;20087;-42
2021/08/12 00:45:00;;;;;;;7.63;5.90;;;18.00;99.90;;;;;;5030261;28;20017;-41
2021/08/12 00:47:26;;;;;;;7.72;5.78;;;18.00;99.90;;;;;;5031817;28;20568;-42
2021/08/12 00:49:52;;;;;;;7.03;6.20;;;18.00;99.90;;;;;;5029673;28;20021;-42
2021/08/12 00:52:19;;;;;;;7.70;5.88;;;17.90;99.90;;;;;;5031445;28;20091;-42
2021/08/12 00:54:45;;;;;;;7.70;6.70;;;17.90;99.90;;;;;;5030726;28;20082;-38
2021/08/12 00:57:11;;;;;;;7.03;5.45;;;17.90;99.90;;;;;;5031036;28;20547;-41
2021/08/12 00:59:41;;;;;;;8.55;5.82;;;17.80;99.90;;;;;;5031050;28;20041;-40
2021/08/12 01:02:15;;;;;;;9.15;6.40;;;17.80;99.90;;;;;;5030876;28;20033;-40
2021/08/12 01:04:52;;;;;;;7.93;6.35;;;17.80;99.90;;;;;;5030189;28;20037;-42
2021/08/12 01:07:26;;;;;;;8.50;6.53;;;17.80;99.90;;;;;;5031667;28;20410;-43
2021/08/12 01:10:17;;;;;;;7.85;6.63;;;17.80;99.90;;;;;;5029255;28;20045;-43
2021/08/12 01:12:59;;;;;;;7.85;6.20;;;17.80;99.90;;;;;;5030530;28;20461;-43
2021/08/12 01:15:31;;;;;;;7.53;6.65;;;17.80;99.90;;;;;;5031516;28;20032;-43
2021/08/12 01:18:24;;;;;;;8.85;6.72;;;17.70;99.90;;;;;;5029926;28;20025;-42
2021/08/12 01:21:23;;;;;;;7.32;6.63;;;17.70;99.90;;;;;;5029434;28;20034;-42
2021/08/12 01:23:48;;;;;;;8.82;6.63;;;17.70;99.90;;;;;;5029714;28;20025;-42
2021/08/12 01:26:20;;;;;;;8.15;6.43;;;17.60;99.90;;;;;;5030546;28;20044;-41
2021/08/12 01:28:48;;;;;;;8.82;6.82;;;17.60;99.90;;;;;;5030501;28;20026;-41
2021/08/12 01:31:40;;;;;;;8.52;6.82;;;17.60;99.90;;;;;;5030385;28;20029;-37
2021/08/12 01:34:36;;;;;;;7.95;6.97;;;17.60;99.90;;;;;;5030092;28;20026;-43
2021/08/12 01:37:02;;;;;;;8.25;7.00;;;17.60;99.90;;;;;;5030331;28;20477;-40
2021/08/12 01:39:28;;;;;;;7.78;6.90;;;17.60;99.90;;;;;;5030250;28;20053;-42
2021/08/12 01:41:55;;;;;;;8.65;7.13;;;17.60;99.90;;;;;;5029609;28;20048;-42
2021/08/12 01:44:21;;;;;;;8.25;7.00;;;17.60;99.90;;;;;;5030863;28;20030;-40
2021/08/12 01:46:52;;;;;;;7.82;7.05;;;17.50;99.90;;;;;;5028914;28;20045;-40
2021/08/12 01:49:18;;;;;;;9.02;6.95;;;17.50;99.90;;;;;;5029959;28;20029;-40
2021/08/12 01:51:49;;;;;;;9.02;7.40;;;17.50;99.90;;;;;;5030097;28;20040;-40
2021/08/12 01:54:15;;;;;;;7.80;7.00;;;17.40;99.90;;;;;;5030083;28;20033;-40
2021/08/12 01:56:44;;;;;;;8.43;6.82;;;17.50;99.90;;;;;;5029564;28;20017;-38
2021/08/12 01:59:09;;;;;;;8.05;6.93;;;17.50;99.90;;;;;;5029636;28;20378;-40
2021/08/12 02:01:37;;;;;;;8.80;7.22;;;17.50;99.90;;;;;;5030143;28;20033;-40
2021/08/12 02:04:03;;;;;;;8.02;7.20;;;17.50;99.90;;;;;;5029529;28;20021;-42
2021/08/12 02:06:35;;;;;;;8.00;7.03;;;17.50;99.90;;;;;;5029738;28;20059;-41
2021/08/12 02:09:02;;;;;;;7.60;6.70;;;17.40;99.90;;;;;;5029976;28;20020;-42
2021/08/12 02:11:28;;;;;;;8.23;6.32;;;17.40;99.90;;;;;;5029607;28;20512;-40
2021/08/12 02:13:53;;;;;;;8.40;7.30;;;17.40;99.90;;;;;;5028458;28;20022;-40
2021/08/12 02:16:19;;;;;;;8.43;7.53;;;17.40;99.90;;;;;;5029682;28;20021;-38
2021/08/12 02:18:45;;;;;;;9.75;7.57;;;17.40;99.90;;;;;;5029462;28;20037;-42
2021/08/12 02:21:27;;;;;;;8.45;6.97;;;17.40;99.90;;;;;;5028668;28;20593;-39
2021/08/12 02:24:03;;;;;;;9.57;7.80;;;17.50;99.90;;;;;;5028835;28;20030;-36
2021/08/12 02:26:34;;;;;;;8.18;7.20;;;17.50;99.90;;;;;;5029829;28;20500;-41
2021/08/12 02:29:01;;;;;;;7.82;7.03;;;17.40;99.90;;;;;;5028610;28;20057;-42
2021/08/12 02:31:28;;;;;;;8.30;7.40;;;17.40;99.90;;;;;;5029600;28;20053;-40
2021/08/12 02:33:54;;;;;;;10.88;7.57;;;17.50;99.90;;;;;;5028472;28;20025;-42
2021/08/12 02:36:20;;;;;;;8.02;7.10;;;17.50;99.90;;;;;;5029320;28;20056;-42
2021/08/12 02:38:46;;;;;;;8.55;6.70;;;17.40;99.90;;;;;;5028208;28;20029;-41
2021/08/12 02:41:16;;;;;;;9.20;7.00;;;17.40;99.90;;;;;;5029482;28;20100;-41
2021/08/12 02:43:43;;;;;;;7.75;6.82;;;17.40;99.90;;;;;;5029194;28;20113;-40
2021/08/12 02:46:10;;;;;;;8.23;7.03;;;17.30;99.90;;;;;;5029110;28;20040;-42
2021/08/12 02:48:39;;;;;;;8.50;7.20;;;17.30;99.90;;;;;;5029511;28;20029;-40
2021/08/12 02:51:05;;;;;;;7.75;6.95;;;17.30;99.90;;;;;;5028513;28;20270;-41
2021/08/12 02:53:33;;;;;;;8.32;7.38;;;17.20;99.90;;;;;;5029173;28;20469;-41
2021/08/12 02:56:01;;;;;;;7.63;6.90;;;17.20;99.90;;;;;;5028312;28;20049;-42
2021/08/12 02:58:31;;;;;;;9.63;7.63;;;17.20;99.90;;;;;;5029415;28;20381;-41
2021/08/12 03:00:57;;;;;;;8.85;7.80;;;17.10;99.90;;;;;;5028579;28;20435;-41
2021/08/12 03:03:25;;;;;;;8.35;7.47;;;17.10;99.90;;;;;;5027902;28;20025;-42
2021/08/12 03:05:50;;;;;;;9.27;7.30;;;17.10;99.90;;;;;;5028600;28;20125;-41
2021/08/12 03:08:18;;;;;;;8.40;7.53;;;17.10;99.90;;;;;;5029069;28;20100;-42
2021/08/12 03:10:44;;;;;;;9.70;7.95;;;17.10;99.90;;;;;;5028145;28;20088;-42
2021/08/12 03:13:10;;;;;;;9.80;8.13;;;17.10;99.90;;;;;;5028516;28;20493;-38
2021/08/12 03:15:40;;;;;;;10.50;8.27;;;17.10;99.90;;;;;;5029694;28;20020;-43
2021/08/12 03:18:06;;;;;;;8.93;7.90;;;17.10;99.90;;;;;;5028116;28;20037;-43
2021/08/12 03:20:41;;;;;;;10.85;8.40;;;17.00;99.90;;;;;;5029229;28;20034;-41
2021/08/12 03:23:08;;;;;;;8.57;7.70;;;17.10;99.90;;;;;;5028078;28;20396;-42
2021/08/12 03:25:33;;;;;;;9.63;8.07;;;17.10;99.90;;;;;;5028327;28;20108;-40
2021/08/12 03:27:59;;;;;;;9.88;8.55;;;17.00;99.90;;;;;;5028301;28;20148;-42
2021/08/12 03:30:28;;;;;;;10.55;7.82;;;17.00;99.90;;;;;;5028349;28;20022;-41
2021/08/12 03:33:00;;;;;;;9.20;8.30;;;17.00;99.90;;;;;;5028069;28;20430;-39
2021/08/12 03:35:25;;;;;;;11.70;8.65;;;17.00;99.90;;;;;;5028480;28;20021;-42
2021/08/12 03:37:51;;;;;;;9.40;8.40;;;16.90;99.90;;;;;;5026620;28;20036;-42
2021/08/12 03:40:19;;;;;;;10.32;9.23;;;16.90;99.90;;;;;;5028351;28;20029;-41
2021/08/12 03:42:45;;;;;;;12.63;9.00;;;16.90;99.90;;;;;;5028721;28;20079;-43
2021/08/12 03:45:11;;;;;;;12.02;8.88;;;16.90;99.90;;;;;;5027908;28;20033;-43
2021/08/12 03:47:36;;;;;;;10.55;8.65;;;16.80;99.90;;;;;;5029007;28;20053;-40
2021/08/12 03:50:06;;;;;;;12.48;8.93;;;16.80;99.90;;;;;;5028372;28;20029;-37
2021/08/12 03:52:31;;;;;;;10.38;9.00;;;16.80;99.90;;;;;;5028128;28;20358;-42
2021/08/12 03:55:00;;;;;;;10.15;8.98;;;16.80;99.90;;;;;;5027917;28;20071;-41
2021/08/12 03:57:25;;;;;;;10.52;9.38;;;16.80;99.90;;;;;;5028868;28;20053;-42
2021/08/12 03:59:51;;;;;;;10.93;9.38;;;16.80;99.90;;;;;;5027799;28;20056;-40
2021/08/12 04:02:16;;;;;;;10.75;9.40;;;16.80;99.90;;;;;;5028468;28;20057;-43
2021/08/12 04:04:42;;;;;;;11.45;9.75;;;16.80;99.90;;;;;;5028207;28;20060;-43
2021/08/12 04:07:07;;;;;;;10.52;9.43;;;16.80;99.90;;;;;;5027121;28;20068;-42
2021/08/12 04:09:33;;;;;;;10.10;9.02;;;16.70;99.90;;;;;;5029154;28;20028;-42
2021/08/12 04:11:59;;;;;;;11.13;9.43;;;16.70;99.90;;;;;;5026488;28;20089;-38
2021/08/12 04:14:24;;;;;;;12.18;10.05;;;16.70;99.90;;;;;;5028936;28;20026;-40
2021/08/12 04:16:52;;;;;;;11.23;9.35;;;16.70;99.90;;;;;;5030252;28;20025;-41
2021/08/12 04:19:18;;;;;;;11.73;9.93;;;16.70;99.90;;;;;;5032197;28;20534;-41
2021/08/12 04:21:43;;;;;;;11.70;9.90;;;16.70;99.90;;;;;;5030584;28;20132;-43
2021/08/12 04:24:09;;;;;;;11.45;9.88;;;16.60;99.90;;;;;;5031902;28;20032;-37
2021/08/12 04:26:34;;;;;;;12.70;10.65;;;16.60;99.90;;;;;;5031720;28;20037;-42
2021/08/12 04:29:00;;;;;;;11.50;10.27;;;16.60;99.90;;;;;;5030331;28;20145;-39
2021/08/12 04:31:26;;;;;;;10.60;9.50;;;16.60;99.90;;;;;;5032481;28;20032;-38
2021/08/12 04:33:51;;;;;;;11.13;9.82;;;16.60;99.90;;;;;;5030933;28;20485;-39
2021/08/12 04:36:17;;;;;;;10.77;9.50;;;16.60;99.90;;;;;;5031388;28;20029;-40
2021/08/12 04:38:43;;;;;;;13.38;10.07;;;16.60;99.90;;;;;;5032474;28;20045;-41
2021/08/12 04:41:08;;;;;;;11.07;9.88;;;16.60;99.90;;;;;;5030924;28;20021;-41
2021/08/12 04:43:35;;;;;;;12.18;9.50;;;16.60;99.90;;;;;;5032080;28;20656;-39
2021/08/12 04:46:00;;;;;;;11.10;9.50;;;16.60;99.90;;;;;;5030956;28;20069;-38
2021/08/12 04:48:26;;;;;;;10.70;9.60;;;16.60;99.90;;;;;;5031682;28;20056;-39
2021/08/12 04:50:52;;;;;;;10.70;9.50;;;16.60;99.90;;;;;;5031321;28;20026;-41
2021/08/12 04:53:17;;;;;;;10.98;9.50;;;16.70;99.90;;;;;;5031486;28;20013;-38
2021/08/12 04:55:43;;;;;;;11.48;9.90;;;16.70;99.90;;;;;;5031417;28;20036;-41
2021/08/12 04:58:11;;;;;;;11.18;9.18;;;16.70;99.90;;;;;;5030713;28;20027;-40
2021/08/12 05:00:36;;;;;;;10.75;9.65;;;16.70;99.90;;;;;;5031551;28;20515;-38
2021/08/12 05:03:02;;;;;;;10.95;9.45;;;16.70;99.90;;;;;;5030090;28;20108;-38
2021/08/12 05:05:27;;;;;;;12.68;10.48;;;16.80;99.90;;;;;;5031132;28;20072;-41
2021/08/12 05:07:53;;;;;;;10.75;9.63;;;16.70;99.90;;;;;;5030695;28;20040;-41
2021/08/12 05:10:18;;;;;;;11.45;9.55;;;16.70;99.90;;;;;;5030445;28;20117;-39
2021/08/12 05:12:44;;;;;;;12.25;10.38;;;16.70;99.90;;;;;;5031093;28;20404;-41
2021/08/12 05:15:10;;;;;;;12.57;9.50;;;16.70;99.90;;;;;;5031342;28;20426;-39
2021/08/12 05:17:35;;;;;;;12.18;10.07;;;16.70;99.90;;;;;;5030395;28;20022;-40
2021/08/12 05:20:01;;;;;;;11.18;9.90;;;16.70;99.90;;;;;;5030791;28;20480;-41
2021/08/12 05:22:27;;;;;;;11.02;9.80;;;16.70;99.90;;;;;;5031272;28;20465;-42
2021/08/12 05:24:53;;;;;;;11.05;9.80;;;16.70;99.90;;;;;;5030201;28;20564;-39
2021/08/12 05:27:18;;;;;;;10.02;9.00;;;16.70;99.90;;;;;;5030085;28;20052;-37
2021/08/12 05:29:44;;;;;;;10.60;9.07;;;16.70;99.90;;;;;;5029844;28;20033;-40
2021/08/12 05:32:09;;;;;;;10.55;8.90;;;16.80;99.90;;;;;;5030480;28;20032;-38
2021/08/12 05:34:35;;;;;;;10.80;9.40;;;16.80;99.90;;;;;;5030582;28;20381;-41
2021/08/12 05:37:01;;;;;;;10.80;9.55;;;16.80;99.90;;;;;;5029347;28;20117;-40
2021/08/12 05:39:27;;;;;;;10.48;9.27;;;16.90;99.90;;;;;;5031117;28;20083;-37
2021/08/12 05:41:53;;;;;;;11.95;9.00;;;17.00;99.90;;;;;;5010182;28;20030;-40
2021/08/12 05:44:18;;;;;;;11.30;8.90;;;17.00;99.90;;;;;;5023344;28;20041;-36
2021/08/12 05:46:44;;;;;;;10.10;8.57;;;17.10;99.90;;;;;;5030841;28;20045;-40
2021/08/12 05:49:10;;;;;;;9.88;8.40;;;17.10;99.90;;;;;;5029402;28;20022;-38
2021/08/12 05:51:37;;;;;;;10.85;8.45;;;17.20;99.90;;;;;;5029814;28;20037;-41
2021/08/12 05:54:04;;;;;;;10.55;8.63;;;17.30;99.90;;;;;;5029713;28;20006;-40
2021/08/12 05:56:29;;;;;;;10.52;9.43;;;17.30;99.90;;;;;;5027283;28;20079;-40
2021/08/12 05:58:55;;;;;;;9.73;8.30;;;17.30;99.90;;;;;;5028439;28;20025;-36
2021/08/12 06:01:21;;;;;;;12.82;9.13;;;17.40;99.90;;;;;;5027963;28;20416;-41
2021/08/12 06:03:47;;;;;;;10.63;8.95;;;17.30;99.90;;;;;;5042517;28;20017;-39
2021/08/12 06:06:14;;;;;;;11.13;9.70;;;17.40;99.90;;;;;;5029043;28;20048;-40
2021/08/12 06:08:40;;;;;;;10.55;9.45;;;17.40;99.90;;;;;;5033903;28;20028;-39
2021/08/12 06:11:05;;;;;;;11.35;9.45;;;17.40;99.90;;;;;;5039096;28;20542;-39
2021/08/12 06:13:31;;;;;;;11.27;9.20;;;17.50;99.90;;;;;;5037613;28;20470;-36
2021/08/12 06:15:58;;;;;;;10.88;9.60;;;17.50;99.90;;;;;;5029720;28;20052;-39
2021/08/12 06:18:24;;;;;;;12.20;9.77;;;17.50;99.90;;;;;;5029325;28;20025;-37
2021/08/12 06:20:50;;;;;;;11.10;9.90;;;17.60;99.90;;;;;;5028344;28;20499;-36
2021/08/12 06:23:15;;;;;;;13.90;10.05;;;17.60;99.90;;;;;;5009343;28;20068;-40
2021/08/12 06:25:41;;;;;;;13.05;11.55;;;17.60;99.90;;;;;;5023197;28;20128;-41
2021/08/12 06:28:08;;;;;;;11.57;10.38;;;17.60;99.90;;;;;;5028547;28;20022;-38
2021/08/12 06:30:34;;;;;;;10.60;9.50;;;17.70;99.90;;;;;;5029263;28;20056;-39
2021/08/12 06:32:59;;;;;;;11.45;10.13;;;17.70;99.90;;;;;;5029236;28;20081;-41
2021/08/12 06:35:27;;;;;;;10.20;9.10;;;17.70;99.90;;;;;;5029811;28;20021;-36
2021/08/12 06:37:53;;;;;;;13.00;10.05;;;17.70;99.90;;;;;;5032715;28;20035;-38
2021/08/12 06:40:23;;;;;;;13.48;11.52;;;17.80;99.90;;;;;;5027058;28;20021;-40
2021/08/12 06:42:49;;;;;;;12.48;11.20;;;17.90;99.90;;;;;;5028601;28;20014;-42
2021/08/12 06:45:16;;;;;;;12.88;10.85;;;17.80;99.90;;;;;;5027914;28;20473;-41
2021/08/12 06:47:42;;;;;;;11.82;10.55;;;17.90;99.90;;;;;;5028960;28;20022;-37
2021/08/12 06:50:08;;;;;;;12.00;9.45;;;17.90;99.90;;;;;;5029000;28;20526;-38
2021/08/12 06:52:35;;;;;;;11.80;10.50;;;18.00;99.90;;;;;;5030499;28;20018;-39
2021/08/12 06:55:01;;;;;;;12.93;10.45;;;18.00;99.90;;;;;;5027730;28;20033;-39
2021/08/12 06:57:27;;;;;;;12.68;10.68;;;18.10;99.90;;;;;;5029699;28;20075;-39
2021/08/12 06:59:53;;;;;;;11.40;10.27;;;18.10;99.90;;;;;;5028979;28;20481;-41
2021/08/12 07:02:19;;;;;;;7.63;6.93;;;18.10;99.90;;;;;;5028715;28;20040;-35
2021/08/12 07:04:44;;;;;;;11.38;9.18;;;18.20;99.90;;;;;;5029936;28;20489;-41
2021/08/12 07:07:10;;;;;;;11.23;10.02;;;18.20;99.90;;;;;;5028524;28;20125;-37
2021/08/12 07:09:37;;;;;;;11.05;9.05;;;18.20;99.90;;;;;;5027534;28;20416;-42
2021/08/12 07:12:03;;;;;;;12.75;9.77;;;18.30;99.90;;;;;;5029291;28;20050;-39
2021/08/12 07:14:28;;;;;;;9.65;8.73;;;18.30;99.90;;;;;;5029258;28;20029;-36
2021/08/12 07:16:54;;;;;;;10.70;9.50;;;18.40;99.90;;;;;;5028216;28;20104;-41
2021/08/12 07:19:20;;;;;;;12.65;9.73;;;18.40;99.90;;;;;;5029059;28;20075;-40
2021/08/12 07:21:46;;;;;;;9.73;8.50;;;18.50;99.90;;;;;;5028712;28;20477;-41
2021/08/12 07:24:11;;;;;;;12.07;10.38;;;18.50;99.90;;;;;;5028468;28;20022;-40
2021/08/12 07:26:41;;;;;;;10.68;9.43;;;18.60;99.90;;;;;;5028753;28;20041;-42
2021/08/12 07:29:07;;;;;;;10.35;9.20;;;18.60;99.90;;;;;;5027315;28;20036;-38
2021/08/12 07:31:33;;;;;;;10.82;9.68;;;18.60;99.90;;;;;;5028469;28;20037;-39
2021/08/12 07:33:59;;;;;;;9.82;8.80;;;18.70;99.90;;;;;;5033559;28;20023;-38
2021/08/12 07:36:25;;;;;;;11.73;10.32;;;18.70;99.90;;;;;;5029228;28;20060;-41
2021/08/12 07:38:51;;;;;;;12.40;11.10;;;18.70;99.90;;;;;;5027245;28;20029;-38
2021/08/12 07:41:18;;;;;;;13.02;10.88;;;18.90;99.90;;;;;;5034480;28;20025;-40
2021/08/12 07:43:43;;;;;;;9.75;8.50;;;18.90;99.90;;;;;;5027713;28;20079;-40
2021/08/12 07:46:09;;;;;;;9.93;8.13;;;19.00;99.90;;;;;;5029208;28;20034;-41
2021/08/12 07:48:36;;;;;;;8.27;7.47;;;19.10;99.90;;;;;;5028844;28;20026;-41
2021/08/12 07:51:02;;;;;;;9.18;7.50;;;19.10;99.90;;;;;;5031951;28;20021;-40
2021/08/12 07:53:28;;;;;;;9.18;8.05;;;19.20;99.90;;;;;;5032492;28;20412;-42
2021/08/12 07:55:56;;;;;;;9.30;8.38;;;19.20;99.90;;;;;;5032279;28;20524;-41
2021/08/12 07:58:22;;;;;;;9.85;8.85;;;19.30;99.90;;;;;;5031749;28;20021;-42
2021/08/12 08:00:47;;;;;;;9.27;7.47;;;19.30;99.90;;;;;;5033008;28;20083;-41
2021/08/12 08:03:13;;;;;;;8.55;7.65;;;19.40;99.90;;;;;;5032813;28;20021;-40
2021/08/12 08:05:39;;;;;;;8.23;6.63;;;19.50;99.90;;;;;;5031942;28;20461;-42
2021/08/12 08:08:04;;;;;;;8.93;7.40;;;19.50;99.90;;;;;;5032364;28;20018;-38
2021/08/12 08:10:30;;;;;;;8.07;6.70;;;19.50;99.90;;;;;;5032330;28;20061;-41
2021/08/12 08:12:56;;;;;;;8.02;6.47;;;19.60;99.90;;;;;;5031465;28;20056;-37
2021/08/12 08:15:22;;;;;;;7.10;6.40;;;19.70;99.90;;;;;;5032069;28;20029;-39
2021/08/12 08:17:48;;;;;;;7.28;6.43;;;19.80;99.90;;;;;;5032251;28;20108;-39
2021/08/12 08:20:14;;;;;;;8.57;7.63;;;19.80;99.90;;;;;;5031463;28;20148;-40
2021/08/12 08:22:40;;;;;;;6.50;5.90;;;19.90;99.90;;;;;;5032911;28;20064;-41
2021/08/12 08:25:07;;;;;;;7.15;6.35;;;20.00;99.90;;;;;;5031870;28;20489;-38
2021/08/12 08:27:33;;;;;;;7.18;6.28;;;20.00;99.90;;;;;;5031988;28;20045;-42
2021/08/12 08:30:02;;;;;;;8.25;5.93;;;20.10;99.90;;;;;;5032530;28;20029;-39
2021/08/12 08:32:27;;;;;;;7.65;6.57;;;20.10;99.90;;;;;;5029769;28;20021;-37
2021/08/12 08:34:53;;;;;;;7.82;6.35;;;20.20;99.90;;;;;;5031446;28;20021;-38
2021/08/12 08:37:19;;;;;;;7.88;6.78;;;20.20;99.90;;;;;;5032634;28;20014;-42
2021/08/12 08:39:45;;;;;;;7.75;6.55;;;20.20;99.90;;;;;;5031496;28;20087;-41
2021/08/12 08:42:13;;;;;;;5.82;5.22;;;20.30;99.90;;;;;;5031370;28;20061;-40
2021/08/12 08:44:42;;;;;;;7.53;5.93;;;20.30;99.90;;;;;;5031207;28;20113;-42
2021/08/12 08:47:09;;;;;;;6.53;5.28;;;20.40;99.90;;;;;;5031583;28;20104;-42
2021/08/12 08:49:38;;;;;;;6.82;6.13;;;20.40;99.90;;;;;;5031414;28;20047;-40
2021/08/12 08:52:07;;;;;;;8.15;6.93;;;20.50;99.90;;;;;;5031334;28;20091;-39
2021/08/12 08:54:34;;;;;;;7.88;6.65;;;20.50;99.90;;;;;;5031377;28;20029;-39
2021/08/12 08:57:00;;;;;;;8.68;7.20;;;20.60;99.90;;;;;;5031221;28;20030;-42
2021/08/12 08:59:26;;;;;;;6.22;5.63;;;20.70;99.90;;;;;;5031293;28;20076;-40
2021/08/12 09:01:52;;;;;;;7.65;6.85;;;20.70;99.90;;;;;;5030066;28;20010;-40
2021/08/12 09:04:18;;;;;;;7.70;6.05;;;20.80;99.90;;;;;;5031897;28;20531;-40
2021/08/12 09:06:44;;;;;;;8.15;5.55;;;20.80;99.90;;;;;;5031082;28;20433;-41
2021/08/12 09:09:10;;;;;;;6.22;5.57;;;20.90;99.90;;;;;;5030827;28;20022;-42
2021/08/12 09:11:37;;;;;;;7.55;6.63;;;20.90;99.90;;;;;;5031066;28;20091;-42
2021/08/12 09:14:29;;;;;;;7.43;6.63;;;21.00;99.80;;;;;;5031477;28;20024;-42
2021/08/12 09:16:55;;;;;;;8.13;6.57;;;21.10;99.70;;;;;;5030202;28;20032;-40
2021/08/12 09:19:21;;;;;;;7.50;6.45;;;21.20;99.60;;;;;;5031010;28;20029;-42
2021/08/12 09:21:52;;;;;;;7.60;6.03;;;21.20;99.50;;;;;;5030313;28;20048;-42
2021/08/12 09:24:18;;;;;;;8.18;6.32;;;21.30;99.30;;;;;;5030886;28;20079;-39
2021/08/12 09:26:44;;;;;;;8.82;6.50;;;21.40;98.90;;;;;;5030769;28;20034;-38
2021/08/12 09:29:10;;;;;;;6.20;4.70;;;21.50;98.60;;;;;;5029294;28;20021;-42
2021/08/12 09:31:58;;;;;;;5.85;4.82;;;21.50;98.50;;;;;;5030853;28;20374;-40
2021/08/12 09:34:24;;;;;;;6.20;5.15;;;21.60;98.30;;;;;;5030459;28;20017;-38
2021/08/12 09:37:03;;;;;;;6.10;4.90;;;21.60;98.10;;;;;;5030163;28;20018;-36
2021/08/12 09:39:32;;;;;;;5.55;5.00;;;21.70;98.10;;;;;;5031197;28;20920;-42
2021/08/12 09:41:58;;;;;;;8.38;5.90;;;21.70;97.90;;;;;;5030369;28;20056;-41
2021/08/12 09:44:40;;;;;;;6.65;4.95;;;21.80;97.60;;;;;;5030154;28;20013;-39
2021/08/12 09:47:14;;;;;;;5.22;4.20;;;21.80;97.70;;;;;;5030265;28;20041;-38
2021/08/12 09:49:48;;;;;;;6.97;5.40;;;21.90;97.80;;;;;;5030697;28;20507;-41
2021/08/12 09:52:32;;;;;;;4.60;4.05;;;21.90;97.70;;;;;;5029866;28;20021;-40
2021/08/12 09:54:59;;;;;;;7.43;4.63;;;21.90;97.70;;;;;;5030118;28;20532;-37
2021/08/12 09:57:25;;;;;;;5.85;4.60;;;22.00;97.80;;;;;;5029686;28;20026;-40
2021/08/12 09:59:53;;;;;;;5.00;4.55;;;22.00;97.60;;;;;;5030513;28;20068;-40
2021/08/12 10:02:19;;;;;;;7.30;5.03;;;22.10;97.60;;;;;;5029884;28;20009;-38
2021/08/12 10:04:45;;;;;;;5.45;4.63;;;22.20;97.40;;;;;;5029750;28;20511;-38
2021/08/12 10:07:50;;;;;;;4.60;3.90;;;22.30;97.30;;;;;;5030803;28;20106;-40
2021/08/12 10:10:18;;;;;;;4.90;3.50;;;22.30;97.30;;;;;;5028119;28;20029;-43
2021/08/12 10:12:47;;;;;;;5.10;3.90;;;22.30;97.30;;;;;;5026391;28;20025;-42
2021/08/12 10:15:16;;;;;;;5.60;3.60;;;22.40;97.30;;;;;;5029131;28;20041;-39
2021/08/12 10:17:43;;;;;;;4.93;3.90;;;22.40;97.20;;;;;;5030024;28;20042;-42
2021/08/12 10:20:36;;;;;;;5.32;3.95;;;22.50;97.00;;;;;;5029490;28;20035;-39
2021/08/12 10:23:04;;;;;;;4.75;3.70;;;22.50;96.60;;;;;;5029105;28;20112;-41
2021/08/12 10:25:30;;;;;;;5.25;3.53;;;22.60;96.70;;;;;;5029611;28;20543;-39
2021/08/12 10:28:00;;;;;;;5.32;4.38;;;22.60;96.70;;;;;;5029845;28;20018;-42
2021/08/12 10:30:27;;;;;;;4.40;4.00;;;22.70;96.50;;;;;;5029860;28;20080;-41
2021/08/12 10:32:55;;;;;;;5.38;4.00;;;22.70;96.40;;;;;;5028887;28;20017;-39
2021/08/12 10:35:26;;;;;;;4.75;4.20;;;22.80;96.20;;;;;;5029892;28;20037;-37
2021/08/12 10:37:56;;;;;;;3.97;3.58;;;22.90;96.30;;;;;;5029262;28;20029;-42
2021/08/12 10:40:27;;;;;;;5.38;4.50;;;22.90;96.30;;;;;;5028902;28;20022;-40
2021/08/12 10:42:54;;;;;;;5.32;4.22;;;22.80;96.20;;;;;;5028792;28;20025;-38
2021/08/12 10:45:22;;;;;;;5.03;4.03;;;22.80;96.30;;;;;;5029931;28;20080;-42
2021/08/12 10:47:55;;;;;;;4.90;4.03;;;22.80;96.00;;;;;;5028367;28;20079;-42
2021/08/12 10:50:34;;;;;;;4.32;3.92;;;22.90;96.00;;;;;;5029164;28;20033;-38
2021/08/12 10:53:11;;;;;;;4.30;3.90;;;23.00;95.90;;;;;;5029140;28;20022;-42
2021/08/12 10:55:40;;;;;;;6.70;5.18;;;23.10;95.80;;;;;;5028846;28;20033;-39
2021/08/12 10:58:17;;;;;;;14.13;4.93;;;23.20;95.50;;;;;;5029429;28;20025;-42
2021/08/12 11:00:50;;;;;;;5.70;4.00;;;23.30;95.60;;;;;;5027685;28;20405;-40
2021/08/12 11:03:35;;;;;;;6.10;4.55;;;23.30;95.50;;;;;;5029780;28;20425;-41
2021/08/12 11:06:08;;;;;;;5.32;4.35;;;23.50;95.30;;;;;;5028856;28;20037;-39
2021/08/12 11:08:49;;;;;;;4.13;3.75;;;23.50;95.30;;;;;;5028716;28;20022;-42
2021/08/12 11:11:35;;;;;;;4.10;3.72;;;23.50;95.40;;;;;;5026532;28;20144;-40
2021/08/12 11:14:05;;;;;;;6.22;4.43;;;23.50;95.60;;;;;;5027718;28;20045;-45
2021/08/12 11:16:40;;;;;;;4.63;3.83;;;23.60;95.50;;;;;;5029292;28;20052;-39
2021/08/12 11:19:22;;;;;;;3.70;3.22;;;23.70;95.50;;;;;;5029101;28;20037;-41
2021/08/12 11:21:48;;;;;;;3.53;3.22;;;23.70;95.40;;;;;;5028436;28;20063;-40
2021/08/12 11:24:17;;;;;;;3.53;2.90;;;23.80;95.40;;;;;;5028484;28;20073;-38
2021/08/12 11:26:45;;;;;;;5.80;3.53;;;23.90;95.30;;;;;;5029298;28;20161;-39
2021/08/12 11:29:29;;;;;;;3.58;3.28;;;23.90;95.10;;;;;;5028713;28;20034;-42
2021/08/12 11:32:15;;;;;;;3.33;2.95;;;23.90;94.90;;;;;;5025981;28;20033;-41
2021/08/12 11:34:49;;;;;;;5.13;3.60;;;24.00;94.90;;;;;;5028285;28;20025;-39
2021/08/12 11:37:18;;;;;;;3.88;3.50;;;24.10;94.70;;;;;;5029014;28;20041;-36
2021/08/12 11:40:06;;;;;;;4.00;3.20;;;24.20;94.40;;;;;;5028902;28;20026;-36
2021/08/12 11:42:37;;;;;;;4.38;3.30;;;24.30;94.50;;;;;;5028340;28;20060;-41
2021/08/12 11:45:14;;;;;;;3.40;3.10;;;24.30;94.30;;;;;;5028432;28;20120;-39
2021/08/12 11:47:44;;;;;;;3.80;3.50;;;24.30;94.10;;;;;;5028481;28;20732;-41
2021/08/12 11:50:12;;;;;;;3.53;3.20;;;24.30;94.10;;;;;;5028185;28;20028;-42
2021/08/12 11:52:44;;;;;;;5.25;3.72;;;24.30;94.20;;;;;;5028785;28;20018;-42
2021/08/12 11:55:20;;;;;;;3.90;3.50;;;24.30;94.20;;;;;;5029307;28;20029;-42
2021/08/12 11:57:51;;;;;;;4.97;3.33;;;24.40;94.00;;;;;;5034768;28;20431;-39
2021/08/12 12:00:19;;;;;;;3.83;3.45;;;24.60;94.00;;;;;;5046252;28;20028;-42
2021/08/12 12:02:56;;;;;;;3.72;3.40;;;24.70;93.70;;;;;;5027481;28;20372;-40
2021/08/12 12:05:23;;;;;;;3.80;3.50;;;25.00;93.50;;;;;;5028714;28;20034;-39
2021/08/12 12:07:50;;;;;;;5.60;4.45;;;25.00;93.30;;;;;;5028229;28;20412;-43
2021/08/12 12:10:22;;;;;;;4.20;3.80;;;25.10;93.10;;;;;;5029338;28;20042;-41
2021/08/12 12:12:48;;;;;;;4.07;3.67;;;25.00;93.00;;;;;;5027400;28;20452;-41
2021/08/12 12:15:32;;;;;;;5.00;4.07;;;25.10;93.20;;;;;;5028946;28;20067;-38
2021/08/12 12:17:57;;;;;;;4.90;3.92;;;25.20;93.00;;;;;;5027996;28;20044;-40
2021/08/12 12:20:24;;;;;;;6.35;4.00;;;25.20;92.80;;;;;;5028806;28;20473;-40
2021/08/12 12:23:00;;;;;;;6.55;3.80;;;25.30;92.60;;;;;;5026842;28;20060;-42
2021/08/12 12:25:27;;;;;;;4.28;3.88;;;25.20;92.50;;;;;;5008146;28;20469;-40
2021/08/12 12:27:56;;;;;;;4.53;3.90;;;25.20;92.60;;;;;;5022348;28;20534;-42
2021/08/12 12:30:23;;;;;;;4.38;3.97;;;25.20;92.70;;;;;;5028459;28;20013;-42
2021/08/12 12:33:03;;;;;;;4.40;4.00;;;25.20;92.60;;;;;;5027334;28;20055;-41
2021/08/12 12:35:31;;;;;;;4.80;4.30;;;25.30;92.60;;;;;;5029026;28;20033;-40
2021/08/12 12:37:59;;;;;;;6.13;4.10;;;25.40;92.60;;;;;;5031195;28;20562;-43
2021/08/12 12:40:28;;;;;;;4.68;4.05;;;25.50;92.50;;;;;;5031965;28;20025;-39
2021/08/12 12:42:54;;;;;;;5.97;4.13;;;25.50;92.40;;;;;;5031404;28;20014;-42
2021/08/12 12:45:20;;;;;;;4.18;3.78;;;25.50;92.30;;;;;;5032132;28;20048;-42
2021/08/12 12:47:46;;;;;;;4.00;3.60;;;25.50;92.30;;;;;;5030415;28;20550;-39
2021/08/12 12:50:18;;;;;;;3.90;3.38;;;25.60;92.20;;;;;;5032528;28;20116;-42